Terminal Aerodrome Forecast
Issued by NWS

Home | Current Version | Previous Version | Graphics & Text | Print | Product List | Glossary On
Versions: 1 2 3 4 5 6 7 8 9 10 11 12 13 14 15 16 17 18 19 20
000
FTUS43 KMPX 211100
TAFAXN
TAF
KAXN 211140Z 2112/2212 18006KT 6SM BR SCT250
      TEMPO 2112/2114 4SM BR
     FM211500 16012KT P6SM FEW060 SCT200
     FM220200 15006KT P6SM VCSH SCT060 OVC120 PROB30 2202/2205
      27030G45KT 1SM TSRA BKN040CB
     FM220600 15005KT 6SM BR FEW010 BKN080
     FM220900 30006KT 5SM BR SCT005 BKN060=

USA.gov is the U.S. government's official web portal to all federal, state and local government web resources and services.